sensor_id;sensor_type;location;lat;lon;timestamp;P1;durP1;ratioP1;P2;durP2;ratioP2
14282;SDS011;7225;59.282;18.344;2023-03-01T00:01:18;5.20;;;0.60;;
14282;SDS011;7225;59.282;18.344;2023-03-01T00:03:47;2.40;;;0.50;;
14282;SDS011;7225;59.282;18.344;2023-03-01T00:06:15;2.87;;;0.63;;
14282;SDS011;7225;59.282;18.344;2023-03-01T00:08:43;1.80;;;0.40;;
14282;SDS011;7225;59.282;18.344;2023-03-01T00:13:47;1.47;;;0.47;;
14282;SDS011;7225;59.282;18.344;2023-03-01T00:16:16;5.50;;;0.73;;
14282;SDS011;7225;59.282;18.344;2023-03-01T00:18:45;3.43;;;0.97;;
14282;SDS011;7225;59.282;18.344;2023-03-01T00:21:13;3.07;;;0.50;;
14282;SDS011;7225;59.282;18.344;2023-03-01T00:23:40;2.67;;;0.50;;
14282;SDS011;7225;59.282;18.344;2023-03-01T00:26:09;1.90;;;0.60;;
14282;SDS011;7225;59.282;18.344;2023-03-01T00:28:38;2.33;;;0.70;;
14282;SDS011;7225;59.282;18.344;2023-03-01T00:31:06;2.63;;;0.70;;
14282;SDS011;7225;59.282;18.344;2023-03-01T00:33:39;2.30;;;0.70;;
14282;SDS011;7225;59.282;18.344;2023-03-01T00:36:07;1.87;;;0.40;;
14282;SDS011;7225;59.282;18.344;2023-03-01T00:38:42;3.70;;;0.70;;
14282;SDS011;7225;59.282;18.344;2023-03-01T00:41:14;2.93;;;0.90;;
14282;SDS011;7225;59.282;18.344;2023-03-01T00:43:43;1.57;;;0.70;;
14282;SDS011;7225;59.282;18.344;2023-03-01T00:46:14;0.97;;;0.43;;
14282;SDS011;7225;59.282;18.344;2023-03-01T00:48:46;3.30;;;1.00;;
14282;SDS011;7225;59.282;18.344;2023-03-01T00:51:18;2.40;;;0.77;;
14282;SDS011;7225;59.282;18.344;2023-03-01T00:53:51;3.57;;;0.70;;
14282;SDS011;7225;59.282;18.344;2023-03-01T00:56:19;1.23;;;0.63;;
14282;SDS011;7225;59.282;18.344;2023-03-01T00:58:46;4.77;;;0.83;;
14282;SDS011;7225;59.282;18.344;2023-03-01T01:01:24;1.67;;;0.50;;
14282;SDS011;7225;59.282;18.344;2023-03-01T01:03:55;0.57;;;0.40;;
14282;SDS011;7225;59.282;18.344;2023-03-01T01:06:31;3.87;;;0.53;;
14282;SDS011;7225;59.282;18.344;2023-03-01T01:09:02;3.07;;;0.70;;
14282;SDS011;7225;59.282;18.344;2023-03-01T01:11:30;4.83;;;0.73;;
14282;SDS011;7225;59.282;18.344;2023-03-01T01:13:57;2.37;;;0.40;;
14282;SDS011;7225;59.282;18.344;2023-03-01T01:16:25;1.87;;;0.37;;
14282;SDS011;7225;59.282;18.344;2023-03-01T01:18:55;2.37;;;0.70;;
14282;SDS011;7225;59.282;18.344;2023-03-01T01:21:23;0.97;;;0.50;;
14282;SDS011;7225;59.282;18.344;2023-03-01T01:23:51;4.90;;;0.70;;
14282;SDS011;7225;59.282;18.344;2023-03-01T01:26:22;4.47;;;1.00;;
14282;SDS011;7225;59.282;18.344;2023-03-01T01:28:55;6.50;;;1.10;;
14282;SDS011;7225;59.282;18.344;2023-03-01T01:31:23;2.37;;;0.60;;
14282;SDS011;7225;59.282;18.344;2023-03-01T01:33:51;5.07;;;0.60;;
14282;SDS011;7225;59.282;18.344;2023-03-01T01:36:19;4.17;;;0.57;;
14282;SDS011;7225;59.282;18.344;2023-03-01T01:38:47;3.73;;;0.57;;
14282;SDS011;7225;59.282;18.344;2023-03-01T01:41:14;1.50;;;0.30;;
14282;SDS011;7225;59.282;18.344;2023-03-01T01:43:43;3.70;;;0.63;;
14282;SDS011;7225;59.282;18.344;2023-03-01T01:46:31;1.90;;;0.80;;
14282;SDS011;7225;59.282;18.344;2023-03-01T01:49:01;4.17;;;0.60;;
14282;SDS011;7225;59.282;18.344;2023-03-01T01:51:45;1.43;;;0.43;;
14282;SDS011;7225;59.282;18.344;2023-03-01T01:54:28;3.53;;;0.73;;
14282;SDS011;7225;59.282;18.344;2023-03-01T01:57:06;3.77;;;0.73;;
14282;SDS011;7225;59.282;18.344;2023-03-01T01:59:38;2.07;;;0.60;;
14282;SDS011;7225;59.282;18.344;2023-03-01T02:02:08;2.57;;;0.57;;
14282;SDS011;7225;59.282;18.344;2023-03-01T02:04:35;4.17;;;0.63;;
14282;SDS011;7225;59.282;18.344;2023-03-01T02:07:07;4.10;;;0.70;;
14282;SDS011;7225;59.282;18.344;2023-03-01T02:09:45;4.67;;;0.93;;
14282;SDS011;7225;59.282;18.344;2023-03-01T02:12:15;2.70;;;0.60;;
14282;SDS011;7225;59.282;18.344;2023-03-01T02:14:44;4.80;;;0.90;;
14282;SDS011;7225;59.282;18.344;2023-03-01T02:17:11;3.10;;;0.60;;
14282;SDS011;7225;59.282;18.344;2023-03-01T02:22:34;2.10;;;0.50;;
14282;SDS011;7225;59.282;18.344;2023-03-01T02:27:59;5.07;;;0.63;;
14282;SDS011;7225;59.282;18.344;2023-03-01T02:30:31;1.47;;;0.50;;
14282;SDS011;7225;59.282;18.344;2023-03-01T02:32:59;1.80;;;0.40;;
14282;SDS011;7225;59.282;18.344;2023-03-01T02:35:30;1.53;;;0.67;;
14282;SDS011;7225;59.282;18.344;2023-03-01T02:38:00;3.17;;;0.60;;
14282;SDS011;7225;59.282;18.344;2023-03-01T02:40:28;3.00;;;0.57;;
14282;SDS011;7225;59.282;18.344;2023-03-01T02:42:57;2.53;;;0.50;;
14282;SDS011;7225;59.282;18.344;2023-03-01T02:45:26;2.47;;;0.40;;
14282;SDS011;7225;59.282;18.344;2023-03-01T02:47:57;4.30;;;0.97;;
14282;SDS011;7225;59.282;18.344;2023-03-01T02:53:01;2.73;;;0.80;;
14282;SDS011;7225;59.282;18.344;2023-03-01T02:55:36;1.33;;;0.50;;
14282;SDS011;7225;59.282;18.344;2023-03-01T02:58:05;3.27;;;0.70;;
14282;SDS011;7225;59.282;18.344;2023-03-01T03:00:36;2.17;;;0.50;;
14282;SDS011;7225;59.282;18.344;2023-03-01T03:03:06;2.43;;;0.50;;
14282;SDS011;7225;59.282;18.344;2023-03-01T03:05:34;3.70;;;1.10;;
14282;SDS011;7225;59.282;18.344;2023-03-01T03:08:02;2.03;;;0.60;;
14282;SDS011;7225;59.282;18.344;2023-03-01T03:10:31;3.90;;;1.17;;
14282;SDS011;7225;59.282;18.344;2023-03-01T03:13:01;3.07;;;0.83;;
14282;SDS011;7225;59.282;18.344;2023-03-01T03:15:31;1.27;;;0.53;;
14282;SDS011;7225;59.282;18.344;2023-03-01T03:18:03;1.67;;;0.60;;
14282;SDS011;7225;59.282;18.344;2023-03-01T03:20:32;1.17;;;0.60;;
14282;SDS011;7225;59.282;18.344;2023-03-01T03:23:00;1.50;;;0.80;;
14282;SDS011;7225;59.282;18.344;2023-03-01T03:25:28;1.70;;;0.53;;
14282;SDS011;7225;59.282;18.344;2023-03-01T03:27:55;1.17;;;0.50;;
14282;SDS011;7225;59.282;18.344;2023-03-01T03:30:25;0.53;;;0.30;;
14282;SDS011;7225;59.282;18.344;2023-03-01T03:32:54;1.30;;;0.40;;
14282;SDS011;7225;59.282;18.344;2023-03-01T03:35:23;2.23;;;0.70;;
14282;SDS011;7225;59.282;18.344;2023-03-01T03:37:53;1.00;;;0.60;;
14282;SDS011;7225;59.282;18.344;2023-03-01T03:40:30;2.57;;;0.33;;
14282;SDS011;7225;59.282;18.344;2023-03-01T03:43:02;2.77;;;0.73;;
14282;SDS011;7225;59.282;18.344;2023-03-01T03:45:31;3.33;;;0.80;;
14282;SDS011;7225;59.282;18.344;2023-03-01T03:48:00;1.77;;;0.43;;
14282;SDS011;7225;59.282;18.344;2023-03-01T03:50:27;2.07;;;0.80;;
14282;SDS011;7225;59.282;18.344;2023-03-01T03:52:55;1.80;;;0.20;;
14282;SDS011;7225;59.282;18.344;2023-03-01T03:55:22;1.40;;;0.60;;
14282;SDS011;7225;59.282;18.344;2023-03-01T03:57:49;2.10;;;0.70;;
14282;SDS011;7225;59.282;18.344;2023-03-01T04:00:21;1.67;;;0.60;;
14282;SDS011;7225;59.282;18.344;2023-03-01T04:02:50;1.47;;;0.50;;
14282;SDS011;7225;59.282;18.344;2023-03-01T04:05:18;1.63;;;0.50;;
14282;SDS011;7225;59.282;18.344;2023-03-01T04:07:45;2.23;;;0.63;;
14282;SDS011;7225;59.282;18.344;2023-03-01T04:10:13;1.93;;;0.50;;
14282;SDS011;7225;59.282;18.344;2023-03-01T04:12:42;1.33;;;0.60;;
14282;SDS011;7225;59.282;18.344;2023-03-01T04:15:10;3.20;;;1.07;;
14282;SDS011;7225;59.282;18.344;2023-03-01T04:17:45;1.37;;;0.40;;
14282;SDS011;7225;59.282;18.344;2023-03-01T04:20:14;2.10;;;0.50;;
14282;SDS011;7225;59.282;18.344;2023-03-01T04:22:43;2.17;;;0.50;;
14282;SDS011;7225;59.282;18.344;2023-03-01T04:25:13;1.50;;;0.47;;
14282;SDS011;7225;59.282;18.344;2023-03-01T04:27:40;1.10;;;0.57;;
14282;SDS011;7225;59.282;18.344;2023-03-01T04:30:08;0.70;;;0.40;;
14282;SDS011;7225;59.282;18.344;2023-03-01T04:32:36;2.83;;;0.73;;
14282;SDS011;7225;59.282;18.344;2023-03-01T04:35:03;0.80;;;0.30;;
14282;SDS011;7225;59.282;18.344;2023-03-01T04:37:30;1.37;;;0.77;;
14282;SDS011;7225;59.282;18.344;2023-03-01T04:39:58;2.27;;;0.70;;
14282;SDS011;7225;59.282;18.344;2023-03-01T04:42:24;0.30;;;0.30;;
14282;SDS011;7225;59.282;18.344;2023-03-01T04:44:51;0.60;;;0.40;;
14282;SDS011;7225;59.282;18.344;2023-03-01T04:47:19;1.97;;;0.60;;
14282;SDS011;7225;59.282;18.344;2023-03-01T04:49:46;2.63;;;0.77;;
14282;SDS011;7225;59.282;18.344;2023-03-01T04:52:12;2.10;;;0.50;;
14282;SDS011;7225;59.282;18.344;2023-03-01T04:54:40;1.20;;;0.53;;
14282;SDS011;7225;59.282;18.344;2023-03-01T04:57:06;1.33;;;0.40;;
14282;SDS011;7225;59.282;18.344;2023-03-01T04:59:33;1.67;;;0.70;;
14282;SDS011;7225;59.282;18.344;2023-03-01T05:02:02;1.10;;;0.50;;
14282;SDS011;7225;59.282;18.344;2023-03-01T05:04:30;1.67;;;0.47;;
14282;SDS011;7225;59.282;18.344;2023-03-01T05:06:57;1.80;;;0.50;;
14282;SDS011;7225;59.282;18.344;2023-03-01T05:09:25;2.13;;;0.57;;
14282;SDS011;7225;59.282;18.344;2023-03-01T05:11:52;1.10;;;0.30;;
14282;SDS011;7225;59.282;18.344;2023-03-01T05:14:19;0.83;;;0.43;;
14282;SDS011;7225;59.282;18.344;2023-03-01T05:16:46;2.57;;;0.60;;
14282;SDS011;7225;59.282;18.344;2023-03-01T05:19:13;1.13;;;0.50;;
14282;SDS011;7225;59.282;18.344;2023-03-01T05:21:42;0.73;;;0.50;;
14282;SDS011;7225;59.282;18.344;2023-03-01T05:24:28;1.90;;;0.50;;
14282;SDS011;7225;59.282;18.344;2023-03-01T05:27:00;1.20;;;0.37;;
14282;SDS011;7225;59.282;18.344;2023-03-01T05:29:28;1.60;;;0.30;;
14282;SDS011;7225;59.282;18.344;2023-03-01T05:31:58;0.73;;;0.27;;
14282;SDS011;7225;59.282;18.344;2023-03-01T05:34:28;1.80;;;0.77;;
14282;SDS011;7225;59.282;18.344;2023-03-01T05:36:56;1.33;;;0.40;;
14282;SDS011;7225;59.282;18.344;2023-03-01T05:39:24;1.43;;;0.30;;
14282;SDS011;7225;59.282;18.344;2023-03-01T05:41:56;1.30;;;0.17;;
14282;SDS011;7225;59.282;18.344;2023-03-01T05:44:25;2.20;;;0.30;;
14282;SDS011;7225;59.282;18.344;2023-03-01T05:46:53;1.83;;;0.50;;
14282;SDS011;7225;59.282;18.344;2023-03-01T05:49:21;1.23;;;0.30;;
14282;SDS011;7225;59.282;18.344;2023-03-01T05:51:51;0.50;;;0.20;;
14282;SDS011;7225;59.282;18.344;2023-03-01T05:54:20;0.20;;;0.17;;
14282;SDS011;7225;59.282;18.344;2023-03-01T05:56:48;1.07;;;0.40;;
14282;SDS011;7225;59.282;18.344;2023-03-01T05:59:15;2.33;;;0.40;;
14282;SDS011;7225;59.282;18.344;2023-03-01T06:01:42;2.97;;;0.30;;
14282;SDS011;7225;59.282;18.344;2023-03-01T06:04:10;0.93;;;0.30;;
14282;SDS011;7225;59.282;18.344;2023-03-01T06:06:37;1.93;;;0.27;;
14282;SDS011;7225;59.282;18.344;2023-03-01T06:09:04;1.00;;;0.47;;
14282;SDS011;7225;59.282;18.344;2023-03-01T06:11:34;0.50;;;0.30;;
14282;SDS011;7225;59.282;18.344;2023-03-01T06:14:02;3.60;;;0.50;;
14282;SDS011;7225;59.282;18.344;2023-03-01T06:16:30;0.87;;;0.40;;
14282;SDS011;7225;59.282;18.344;2023-03-01T06:18:57;0.83;;;0.30;;
14282;SDS011;7225;59.282;18.344;2023-03-01T06:21:24;2.53;;;0.50;;
14282;SDS011;7225;59.282;18.344;2023-03-01T06:23:51;1.10;;;0.47;;
14282;SDS011;7225;59.282;18.344;2023-03-01T06:26:19;1.60;;;0.43;;
14282;SDS011;7225;59.282;18.344;2023-03-01T06:28:46;1.37;;;0.40;;
14282;SDS011;7225;59.282;18.344;2023-03-01T06:31:13;3.10;;;0.47;;
14282;SDS011;7225;59.282;18.344;2023-03-01T06:33:40;2.47;;;0.63;;
14282;SDS011;7225;59.282;18.344;2023-03-01T06:36:07;0.40;;;0.30;;
14282;SDS011;7225;59.282;18.344;2023-03-01T06:38:35;1.77;;;0.40;;
14282;SDS011;7225;59.282;18.344;2023-03-01T06:41:03;0.70;;;0.30;;
14282;SDS011;7225;59.282;18.344;2023-03-01T06:43:30;1.70;;;0.67;;
14282;SDS011;7225;59.282;18.344;2023-03-01T06:45:57;0.73;;;0.40;;
14282;SDS011;7225;59.282;18.344;2023-03-01T06:48:24;5.00;;;0.70;;
14282;SDS011;7225;59.282;18.344;2023-03-01T06:50:51;2.83;;;0.60;;
14282;SDS011;7225;59.282;18.344;2023-03-01T06:53:18;4.90;;;0.50;;
14282;SDS011;7225;59.282;18.344;2023-03-01T06:55:45;1.97;;;0.50;;
14282;SDS011;7225;59.282;18.344;2023-03-01T06:58:12;1.43;;;0.40;;
14282;SDS011;7225;59.282;18.344;2023-03-01T07:00:39;0.67;;;0.23;;
14282;SDS011;7225;59.282;18.344;2023-03-01T07:03:07;0.73;;;0.30;;
14282;SDS011;7225;59.282;18.344;2023-03-01T07:05:35;7.73;;;4.83;;
14282;SDS011;7225;59.282;18.344;2023-03-01T07:08:02;11.90;;;4.20;;
14282;SDS011;7225;59.282;18.344;2023-03-01T07:10:29;7.70;;;3.87;;
14282;SDS011;7225;59.282;18.344;2023-03-01T07:12:56;2.93;;;2.20;;
14282;SDS011;7225;59.282;18.344;2023-03-01T07:15:24;4.47;;;2.47;;
14282;SDS011;7225;59.282;18.344;2023-03-01T07:17:52;6.33;;;2.20;;
14282;SDS011;7225;59.282;18.344;2023-03-01T07:20:20;2.50;;;1.33;;
14282;SDS011;7225;59.282;18.344;2023-03-01T07:22:54;2.20;;;1.10;;
14282;SDS011;7225;59.282;18.344;2023-03-01T07:25:22;2.33;;;0.93;;
14282;SDS011;7225;59.282;18.344;2023-03-01T07:27:50;0.50;;;0.47;;
14282;SDS011;7225;59.282;18.344;2023-03-01T07:30:18;1.50;;;0.60;;
14282;SDS011;7225;59.282;18.344;2023-03-01T07:32:46;1.30;;;0.40;;
14282;SDS011;7225;59.282;18.344;2023-03-01T07:35:13;1.07;;;0.43;;
14282;SDS011;7225;59.282;18.344;2023-03-01T07:37:41;2.57;;;0.20;;
14282;SDS011;7225;59.282;18.344;2023-03-01T07:40:08;2.83;;;0.43;;
14282;SDS011;7225;59.282;18.344;2023-03-01T07:42:36;1.67;;;0.67;;
14282;SDS011;7225;59.282;18.344;2023-03-01T07:45:04;1.33;;;0.60;;
14282;SDS011;7225;59.282;18.344;2023-03-01T07:47:32;1.07;;;0.70;;
14282;SDS011;7225;59.282;18.344;2023-03-01T07:49:59;1.93;;;0.60;;
14282;SDS011;7225;59.282;18.344;2023-03-01T07:52:27;2.10;;;0.80;;
14282;SDS011;7225;59.282;18.344;2023-03-01T07:54:54;2.60;;;0.93;;
14282;SDS011;7225;59.282;18.344;2023-03-01T07:57:21;0.30;;;0.23;;
14282;SDS011;7225;59.282;18.344;2023-03-01T07:59:48;0.90;;;0.40;;
14282;SDS011;7225;59.282;18.344;2023-03-01T08:02:15;1.23;;;0.67;;
14282;SDS011;7225;59.282;18.344;2023-03-01T08:04:42;2.27;;;0.57;;
14282;SDS011;7225;59.282;18.344;2023-03-01T08:07:09;1.93;;;0.60;;
14282;SDS011;7225;59.282;18.344;2023-03-01T08:09:36;1.30;;;0.70;;
14282;SDS011;7225;59.282;18.344;2023-03-01T08:12:04;1.63;;;1.20;;
14282;SDS011;7225;59.282;18.344;2023-03-01T08:14:32;2.43;;;0.90;;
14282;SDS011;7225;59.282;18.344;2023-03-01T08:16:59;0.87;;;0.50;;
14282;SDS011;7225;59.282;18.344;2023-03-01T08:19:26;1.07;;;0.40;;
14282;SDS011;7225;59.282;18.344;2023-03-01T08:21:54;2.63;;;0.47;;
14282;SDS011;7225;59.282;18.344;2023-03-01T08:24:24;3.83;;;0.50;;
14282;SDS011;7225;59.282;18.344;2023-03-01T08:26:51;0.77;;;0.33;;
14282;SDS011;7225;59.282;18.344;2023-03-01T08:29:18;1.57;;;0.50;;
14282;SDS011;7225;59.282;18.344;2023-03-01T08:31:45;1.83;;;0.60;;
14282;SDS011;7225;59.282;18.344;2023-03-01T08:34:14;0.73;;;0.30;;
14282;SDS011;7225;59.282;18.344;2023-03-01T08:36:43;3.10;;;0.40;;
14282;SDS011;7225;59.282;18.344;2023-03-01T08:39:12;0.30;;;0.30;;
14282;SDS011;7225;59.282;18.344;2023-03-01T08:41:41;2.33;;;0.50;;
14282;SDS011;7225;59.282;18.344;2023-03-01T08:44:09;2.27;;;0.37;;
14282;SDS011;7225;59.282;18.344;2023-03-01T08:46:38;0.73;;;0.20;;
14282;SDS011;7225;59.282;18.344;2023-03-01T08:49:07;2.00;;;0.37;;
14282;SDS011;7225;59.282;18.344;2023-03-01T08:51:43;2.90;;;0.63;;
14282;SDS011;7225;59.282;18.344;2023-03-01T08:54:12;2.00;;;0.67;;
14282;SDS011;7225;59.282;18.344;2023-03-01T08:56:44;0.83;;;0.37;;
14282;SDS011;7225;59.282;18.344;2023-03-01T08:59:12;1.20;;;0.57;;
14282;SDS011;7225;59.282;18.344;2023-03-01T09:01:40;2.20;;;0.50;;
14282;SDS011;7225;59.282;18.344;2023-03-01T09:04:10;3.00;;;0.47;;
14282;SDS011;7225;59.282;18.344;2023-03-01T09:06:38;4.03;;;0.50;;
14282;SDS011;7225;59.282;18.344;2023-03-01T09:09:05;1.67;;;0.37;;
14282;SDS011;7225;59.282;18.344;2023-03-01T09:11:32;2.00;;;0.67;;
14282;SDS011;7225;59.282;18.344;2023-03-01T09:13:59;1.33;;;0.50;;
14282;SDS011;7225;59.282;18.344;2023-03-01T09:16:26;3.17;;;0.50;;
14282;SDS011;7225;59.282;18.344;2023-03-01T09:18:53;3.17;;;0.50;;
14282;SDS011;7225;59.282;18.344;2023-03-01T09:21:21;0.83;;;0.43;;
14282;SDS011;7225;59.282;18.344;2023-03-01T09:24:05;1.47;;;0.50;;
14282;SDS011;7225;59.282;18.344;2023-03-01T09:26:38;0.67;;;0.30;;
14282;SDS011;7225;59.282;18.344;2023-03-01T09:29:05;1.90;;;0.60;;
14282;SDS011;7225;59.282;18.344;2023-03-01T09:31:32;0.80;;;0.50;;
14282;SDS011;7225;59.282;18.344;2023-03-01T09:33:58;1.43;;;0.60;;
14282;SDS011;7225;59.282;18.344;2023-03-01T09:36:25;0.90;;;0.30;;
14282;SDS011;7225;59.282;18.344;2023-03-01T09:38:53;1.07;;;0.77;;
14282;SDS011;7225;59.282;18.344;2023-03-01T09:44:07;2.63;;;0.73;;
14282;SDS011;7225;59.282;18.344;2023-03-01T09:47:00;3.67;;;0.50;;
14282;SDS011;7225;59.282;18.344;2023-03-01T09:49:32;2.77;;;0.70;;
14282;SDS011;7225;59.282;18.344;2023-03-01T09:54:56;1.87;;;0.73;;
14282;SDS011;7225;59.282;18.344;2023-03-01T09:57:28;3.53;;;0.80;;
14282;SDS011;7225;59.282;18.344;2023-03-01T10:02:55;1.80;;;0.57;;
14282;SDS011;7225;59.282;18.344;2023-03-01T10:06:00;2.70;;;0.40;;
14282;SDS011;7225;59.282;18.344;2023-03-01T10:09:05;2.30;;;0.47;;
14282;SDS011;7225;59.282;18.344;2023-03-01T10:11:47;2.00;;;0.30;;
14282;SDS011;7225;59.282;18.344;2023-03-01T10:17:02;2.10;;;0.50;;
14282;SDS011;7225;59.282;18.344;2023-03-01T10:19:46;1.43;;;0.60;;
14282;SDS011;7225;59.282;18.344;2023-03-01T10:22:16;1.97;;;0.40;;
14282;SDS011;7225;59.282;18.344;2023-03-01T10:24:56;1.77;;;0.60;;
14282;SDS011;7225;59.282;18.344;2023-03-01T10:27:29;0.83;;;0.33;;
14282;SDS011;7225;59.282;18.344;2023-03-01T10:32:57;0.50;;;0.30;;
14282;SDS011;7225;59.282;18.344;2023-03-01T10:35:28;1.93;;;0.40;;
14282;SDS011;7225;59.282;18.344;2023-03-01T10:38:06;2.30;;;0.40;;
14282;SDS011;7225;59.282;18.344;2023-03-01T10:40:59;1.57;;;0.67;;
14282;SDS011;7225;59.282;18.344;2023-03-01T10:43:40;1.60;;;0.33;;
14282;SDS011;7225;59.282;18.344;2023-03-01T10:46:33;0.80;;;0.40;;
14282;SDS011;7225;59.282;18.344;2023-03-01T10:49:20;1.03;;;0.50;;
14282;SDS011;7225;59.282;18.344;2023-03-01T10:51:49;2.70;;;0.90;;
14282;SDS011;7225;59.282;18.344;2023-03-01T10:54:22;1.30;;;0.37;;
14282;SDS011;7225;59.282;18.344;2023-03-01T10:56:59;2.97;;;0.40;;
14282;SDS011;7225;59.282;18.344;2023-03-01T10:59:31;0.73;;;0.40;;
14282;SDS011;7225;59.282;18.344;2023-03-01T11:02:23;0.90;;;0.50;;
14282;SDS011;7225;59.282;18.344;2023-03-01T11:07:48;3.53;;;0.60;;
14282;SDS011;7225;59.282;18.344;2023-03-01T11:10:20;1.47;;;0.37;;
14282;SDS011;7225;59.282;18.344;2023-03-01T11:12:50;2.40;;;0.60;;
14282;SDS011;7225;59.282;18.344;2023-03-01T11:15:22;0.50;;;0.30;;
14282;SDS011;7225;59.282;18.344;2023-03-01T11:17:54;1.13;;;0.50;;
14282;SDS011;7225;59.282;18.344;2023-03-01T11:20:38;3.17;;;0.43;;
14282;SDS011;7225;59.282;18.344;2023-03-01T11:23:07;1.80;;;0.47;;
14282;SDS011;7225;59.282;18.344;2023-03-01T11:25:46;2.43;;;0.73;;
14282;SDS011;7225;59.282;18.344;2023-03-01T11:28:37;2.60;;;0.70;;
14282;SDS011;7225;59.282;18.344;2023-03-01T11:31:08;0.90;;;0.30;;
14282;SDS011;7225;59.282;18.344;2023-03-01T11:42:22;0.70;;;0.40;;
14282;SDS011;7225;59.282;18.344;2023-03-01T11:45:02;1.10;;;0.30;;
14282;SDS011;7225;59.282;18.344;2023-03-01T11:47:51;1.10;;;0.37;;
14282;SDS011;7225;59.282;18.344;2023-03-01T11:50:27;2.13;;;0.67;;
14282;SDS011;7225;59.282;18.344;2023-03-01T11:55:35;1.80;;;0.50;;
14282;SDS011;7225;59.282;18.344;2023-03-01T12:00:51;0.83;;;0.30;;
14282;SDS011;7225;59.282;18.344;2023-03-01T12:09:07;0.60;;;0.37;;
14282;SDS011;7225;59.282;18.344;2023-03-01T12:15:00;1.20;;;0.50;;
14282;SDS011;7225;59.282;18.344;2023-03-01T12:17:39;2.23;;;0.43;;
14282;SDS011;7225;59.282;18.344;2023-03-01T12:20:41;2.17;;;0.50;;
14282;SDS011;7225;59.282;18.344;2023-03-01T12:24:18;0.50;;;0.40;;
14282;SDS011;7225;59.282;18.344;2023-03-01T12:31:44;3.67;;;1.27;;
14282;SDS011;7225;59.282;18.344;2023-03-01T12:40:15;1.13;;;0.40;;
14282;SDS011;7225;59.282;18.344;2023-03-01T12:43:08;1.03;;;0.40;;
14282;SDS011;7225;59.282;18.344;2023-03-01T12:48:59;2.67;;;0.27;;
14282;SDS011;7225;59.282;18.344;2023-03-01T12:51:37;1.93;;;0.40;;
14282;SDS011;7225;59.282;18.344;2023-03-01T12:54:15;1.10;;;0.47;;
14282;SDS011;7225;59.282;18.344;2023-03-01T12:56:47;0.40;;;0.40;;
14282;SDS011;7225;59.282;18.344;2023-03-01T13:08:08;4.63;;;0.50;;
14282;SDS011;7225;59.282;18.344;2023-03-01T13:10:56;0.50;;;0.20;;
14282;SDS011;7225;59.282;18.344;2023-03-01T13:13:28;0.53;;;0.20;;
14282;SDS011;7225;59.282;18.344;2023-03-01T13:15:56;2.53;;;0.50;;
14282;SDS011;7225;59.282;18.344;2023-03-01T13:20:58;2.90;;;0.60;;
14282;SDS011;7225;59.282;18.344;2023-03-01T13:23:28;1.50;;;0.50;;
14282;SDS011;7225;59.282;18.344;2023-03-01T13:26:05;1.53;;;0.50;;
14282;SDS011;7225;59.282;18.344;2023-03-01T13:31:02;2.63;;;0.30;;
14282;SDS011;7225;59.282;18.344;2023-03-01T13:36:00;0.93;;;0.50;;
14282;SDS011;7225;59.282;18.344;2023-03-01T13:41:05;0.73;;;0.30;;
14282;SDS011;7225;59.282;18.344;2023-03-01T13:43:36;0.97;;;0.50;;
14282;SDS011;7225;59.282;18.344;2023-03-01T13:46:24;0.47;;;0.30;;
14282;SDS011;7225;59.282;18.344;2023-03-01T13:48:53;2.93;;;0.40;;
14282;SDS011;7225;59.282;18.344;2023-03-01T13:51:23;0.87;;;0.30;;
14282;SDS011;7225;59.282;18.344;2023-03-01T13:53:53;0.53;;;0.30;;
14282;SDS011;7225;59.282;18.344;2023-03-01T14:01:59;0.90;;;0.20;;
14282;SDS011;7225;59.282;18.344;2023-03-01T14:04:27;0.87;;;0.30;;
14282;SDS011;7225;59.282;18.344;2023-03-01T14:07:19;0.67;;;0.30;;
14282;SDS011;7225;59.282;18.344;2023-03-01T14:10:03;2.47;;;0.30;;
14282;SDS011;7225;59.282;18.344;2023-03-01T14:17:52;1.20;;;0.30;;
14282;SDS011;7225;59.282;18.344;2023-03-01T14:20:32;1.23;;;0.30;;
14282;SDS011;7225;59.282;18.344;2023-03-01T14:23:09;1.80;;;0.40;;
14282;SDS011;7225;59.282;18.344;2023-03-01T14:25:39;0.93;;;0.50;;
14282;SDS011;7225;59.282;18.344;2023-03-01T14:28:19;2.57;;;0.50;;
14282;SDS011;7225;59.282;18.344;2023-03-01T14:30:49;0.93;;;0.43;;
14282;SDS011;7225;59.282;18.344;2023-03-01T14:33:18;2.00;;;0.50;;
14282;SDS011;7225;59.282;18.344;2023-03-01T14:35:53;1.17;;;0.20;;
14282;SDS011;7225;59.282;18.344;2023-03-01T14:38:30;0.13;;;0.03;;
14282;SDS011;7225;59.282;18.344;2023-03-01T14:41:05;0.77;;;0.40;;
14282;SDS011;7225;59.282;18.344;2023-03-01T14:43:35;2.00;;;0.63;;
14282;SDS011;7225;59.282;18.344;2023-03-01T14:46:22;2.00;;;0.40;;
14282;SDS011;7225;59.282;18.344;2023-03-01T14:48:54;2.30;;;0.33;;
14282;SDS011;7225;59.282;18.344;2023-03-01T14:51:24;0.23;;;0.20;;
14282;SDS011;7225;59.282;18.344;2023-03-01T14:53:51;2.60;;;0.33;;
14282;SDS011;7225;59.282;18.344;2023-03-01T14:56:19;2.57;;;0.33;;
14282;SDS011;7225;59.282;18.344;2023-03-01T14:58:46;0.77;;;0.17;;
14282;SDS011;7225;59.282;18.344;2023-03-01T15:01:17;3.63;;;0.40;;
14282;SDS011;7225;59.282;18.344;2023-03-01T15:03:46;0.53;;;0.20;;
14282;SDS011;7225;59.282;18.344;2023-03-01T15:06:16;2.47;;;0.53;;
14282;SDS011;7225;59.282;18.344;2023-03-01T15:08:46;1.93;;;0.30;;
14282;SDS011;7225;59.282;18.344;2023-03-01T15:11:18;2.30;;;0.50;;
14282;SDS011;7225;59.282;18.344;2023-03-01T15:13:49;1.60;;;0.20;;
14282;SDS011;7225;59.282;18.344;2023-03-01T15:16:17;1.00;;;0.30;;
14282;SDS011;7225;59.282;18.344;2023-03-01T15:18:49;0.60;;;0.40;;
14282;SDS011;7225;59.282;18.344;2023-03-01T15:21:22;0.87;;;0.37;;
14282;SDS011;7225;59.282;18.344;2023-03-01T15:23:52;2.63;;;0.33;;
14282;SDS011;7225;59.282;18.344;2023-03-01T15:26:42;1.03;;;0.20;;
14282;SDS011;7225;59.282;18.344;2023-03-01T15:29:16;1.97;;;0.40;;
14282;SDS011;7225;59.282;18.344;2023-03-01T15:31:58;1.63;;;0.40;;
14282;SDS011;7225;59.282;18.344;2023-03-01T15:34:31;0.60;;;0.37;;
14282;SDS011;7225;59.282;18.344;2023-03-01T15:36:59;4.70;;;0.63;;
14282;SDS011;7225;59.282;18.344;2023-03-01T15:42:08;1.77;;;0.30;;
14282;SDS011;7225;59.282;18.344;2023-03-01T15:44:40;2.33;;;0.50;;
14282;SDS011;7225;59.282;18.344;2023-03-01T15:47:27;1.67;;;0.30;;
14282;SDS011;7225;59.282;18.344;2023-03-01T15:49:58;0.73;;;0.40;;
14282;SDS011;7225;59.282;18.344;2023-03-01T15:52:28;1.77;;;0.33;;
14282;SDS011;7225;59.282;18.344;2023-03-01T15:55:04;2.03;;;0.40;;
14282;SDS011;7225;59.282;18.344;2023-03-01T15:57:40;1.80;;;0.40;;
14282;SDS011;7225;59.282;18.344;2023-03-01T16:00:10;4.23;;;0.80;;
14282;SDS011;7225;59.282;18.344;2023-03-01T16:02:41;3.20;;;0.50;;
14282;SDS011;7225;59.282;18.344;2023-03-01T16:05:17;1.83;;;0.57;;
14282;SDS011;7225;59.282;18.344;2023-03-01T16:07:47;2.53;;;0.40;;
14282;SDS011;7225;59.282;18.344;2023-03-01T16:10:15;1.80;;;0.53;;
14282;SDS011;7225;59.282;18.344;2023-03-01T16:12:42;2.97;;;0.40;;
14282;SDS011;7225;59.282;18.344;2023-03-01T16:15:13;1.07;;;0.30;;
14282;SDS011;7225;59.282;18.344;2023-03-01T16:17:56;2.37;;;0.60;;
14282;SDS011;7225;59.282;18.344;2023-03-01T16:20:24;3.50;;;0.40;;
14282;SDS011;7225;59.282;18.344;2023-03-01T16:22:59;2.83;;;0.40;;
14282;SDS011;7225;59.282;18.344;2023-03-01T16:25:28;6.53;;;0.77;;
14282;SDS011;7225;59.282;18.344;2023-03-01T16:27:56;1.53;;;0.20;;
14282;SDS011;7225;59.282;18.344;2023-03-01T16:30:24;1.00;;;0.47;;
14282;SDS011;7225;59.282;18.344;2023-03-01T16:32:52;2.23;;;0.60;;
14282;SDS011;7225;59.282;18.344;2023-03-01T16:35:20;3.00;;;0.53;;
14282;SDS011;7225;59.282;18.344;2023-03-01T16:37:47;3.93;;;0.60;;
14282;SDS011;7225;59.282;18.344;2023-03-01T16:40:19;2.63;;;0.40;;
14282;SDS011;7225;59.282;18.344;2023-03-01T16:42:53;1.53;;;0.37;;
14282;SDS011;7225;59.282;18.344;2023-03-01T16:45:25;3.80;;;0.73;;
14282;SDS011;7225;59.282;18.344;2023-03-01T16:48:02;4.57;;;0.40;;
14282;SDS011;7225;59.282;18.344;2023-03-01T16:50:29;1.07;;;0.40;;